Time;durP1;ratioP1;P1;durP2;ratioP2;P2;SDS_P1;SDS_P2;PMS_P1;PMS_P2;Temp;Humidity;BMP_temperature;BMP_pressure;BME280_temperature;BME280_humidity;BME280_pressure;Samples;Min_cycle;Max_cycle;Signal;HPM_P1;HPM_P2
2023/10/25 00:02:19;;;;;;;1.67;1.58;;;13.80;76.10;;;;;;5040627;28;20132;-77
2023/10/25 00:04:45;;;;;;;1.60;1.50;;;13.80;76.10;;;;;;5031464;28;20072;-76
2023/10/25 00:07:11;;;;;;;1.90;1.70;;;13.80;76.10;;;;;;5032375;28;20030;-76
2023/10/25 00:09:37;;;;;;;2.42;1.65;;;13.80;76.10;;;;;;5033897;28;20040;-76
2023/10/25 00:12:03;;;;;;;3.22;1.73;;;13.70;76.10;;;;;;5015298;28;20034;-77
2023/10/25 00:14:29;;;;;;;1.92;1.60;;;13.70;76.10;;;;;;5038482;28;20630;-77
2023/10/25 00:16:55;;;;;;;2.40;1.83;;;13.70;76.10;;;;;;5033479;28;20037;-76
2023/10/25 00:19:20;;;;;;;3.22;1.75;;;13.70;76.20;;;;;;5033078;28;20475;-76
2023/10/25 00:21:46;;;;;;;2.42;1.80;;;13.70;76.20;;;;;;5039994;28;20034;-76
2023/10/25 00:24:12;;;;;;;1.83;1.65;;;13.70;76.20;;;;;;5036518;28;20018;-76
2023/10/25 00:26:37;;;;;;;1.75;1.63;;;13.70;76.20;;;;;;5033783;28;20029;-76
2023/10/25 00:29:04;;;;;;;2.58;1.70;;;13.70;76.20;;;;;;5033588;28;20045;-77
2023/10/25 00:31:29;;;;;;;1.60;1.50;;;13.70;76.30;;;;;;5033499;28;20127;-77
2023/10/25 00:33:55;;;;;;;1.80;1.50;;;13.70;76.30;;;;;;5047741;28;20064;-77
2023/10/25 00:36:21;;;;;;;2.38;1.80;;;13.60;76.20;;;;;;5047414;28;20090;-76
2023/10/25 00:38:47;;;;;;;1.88;1.60;;;13.60;76.20;;;;;;5039141;28;20033;-76
2023/10/25 00:41:12;;;;;;;1.60;1.40;;;13.60;76.20;;;;;;5019743;28;20036;-76
2023/10/25 00:43:38;;;;;;;1.67;1.52;;;13.60;76.20;;;;;;5039812;28;20470;-77
2023/10/25 00:46:24;;;;;;;2.17;1.60;;;13.60;76.30;;;;;;5023291;28;20026;-76
2023/10/25 00:48:54;;;;;;;2.20;1.80;;;13.60;76.30;;;;;;5030512;28;20044;-76
2023/10/25 00:51:21;;;;;;;2.72;1.55;;;13.60;76.30;;;;;;5044091;28;20031;-76
2023/10/25 00:53:52;;;;;;;2.38;1.70;;;13.60;76.30;;;;;;5043482;28;20088;-76
2023/10/25 00:56:19;;;;;;;3.25;2.00;;;13.50;76.30;;;;;;5032581;28;20032;-76
2023/10/25 00:58:48;;;;;;;1.85;1.65;;;13.50;76.30;;;;;;5030993;28;20031;-76
2023/10/25 01:01:15;;;;;;;1.73;1.55;;;13.50;76.40;;;;;;5042866;28;20463;-76
2023/10/25 01:03:41;;;;;;;2.65;1.60;;;13.50;76.30;;;;;;5039994;28;20037;-76
2023/10/25 01:06:07;;;;;;;1.88;1.60;;;13.50;76.40;;;;;;5035975;28;20028;-77
2023/10/25 01:08:33;;;;;;;1.83;1.52;;;13.50;76.40;;;;;;5023467;28;20494;-76
2023/10/25 01:10:59;;;;;;;1.73;1.50;;;13.50;76.40;;;;;;5043875;28;20044;-76
2023/10/25 01:13:24;;;;;;;2.00;1.73;;;13.50;76.40;;;;;;5018642;28;20025;-76
2023/10/25 01:15:50;;;;;;;2.13;1.70;;;13.40;76.40;;;;;;5030974;28;20104;-76
2023/10/25 01:18:16;;;;;;;2.30;1.60;;;13.50;76.40;;;;;;5018120;28;20025;-77
2023/10/25 01:20:45;;;;;;;2.20;1.70;;;13.40;76.40;;;;;;5033772;28;20116;-76
2023/10/25 01:23:11;;;;;;;2.10;1.70;;;13.40;76.40;;;;;;5012032;28;20091;-76
2023/10/25 01:25:40;;;;;;;2.45;1.80;;;13.40;76.40;;;;;;5043658;28;20121;-76
2023/10/25 01:28:06;;;;;;;2.55;1.80;;;13.40;76.40;;;;;;5036283;28;20071;-76
2023/10/25 01:30:32;;;;;;;1.77;1.55;;;13.40;76.40;;;;;;5038324;28;20021;-76
2023/10/25 01:32:58;;;;;;;1.67;1.50;;;13.40;76.40;;;;;;5024347;28;20048;-76
2023/10/25 01:35:25;;;;;;;1.73;1.50;;;13.40;76.40;;;;;;5038352;28;20053;-76
2023/10/25 01:37:52;;;;;;;1.73;1.40;;;13.30;76.40;;;;;;5013299;28;20033;-76
2023/10/25 01:40:17;;;;;;;2.08;1.63;;;13.30;76.40;;;;;;5013964;28;20022;-77
2023/10/25 01:42:44;;;;;;;1.60;1.50;;;13.30;76.40;;;;;;4998327;28;20038;-76
2023/10/25 01:45:11;;;;;;;2.33;1.70;;;13.30;76.40;;;;;;5031192;28;20549;-76
2023/10/25 01:47:40;;;;;;;1.70;1.60;;;13.30;76.40;;;;;;5031089;28;20040;-76
2023/10/25 01:50:07;;;;;;;2.00;1.55;;;13.30;76.50;;;;;;5027506;28;20029;-77
2023/10/25 01:52:33;;;;;;;2.15;1.70;;;13.20;76.40;;;;;;5018342;28;20094;-77
2023/10/25 01:54:59;;;;;;;1.48;1.38;;;13.20;76.40;;;;;;5040091;28;20030;-76
2023/10/25 01:57:25;;;;;;;1.63;1.50;;;13.20;76.40;;;;;;5036935;28;20094;-77
2023/10/25 01:59:51;;;;;;;2.05;1.50;;;13.20;76.40;;;;;;5018725;28;20026;-76
2023/10/25 02:02:17;;;;;;;2.38;1.67;;;13.20;76.50;;;;;;5014775;28;20462;-76
2023/10/25 02:04:43;;;;;;;1.85;1.40;;;13.20;76.50;;;;;;5044675;28;20065;-76
2023/10/25 02:07:09;;;;;;;2.05;1.73;;;13.20;76.50;;;;;;5039402;28;20064;-76
2023/10/25 02:09:35;;;;;;;1.65;1.50;;;13.20;76.50;;;;;;5034505;28;20029;-77
2023/10/25 02:12:01;;;;;;;2.65;1.73;;;13.10;76.50;;;;;;5037484;28;20025;-76
2023/10/25 02:14:27;;;;;;;2.35;1.60;;;13.10;76.40;;;;;;5015437;28;20045;-76
2023/10/25 02:16:53;;;;;;;2.22;1.70;;;13.10;76.40;;;;;;5039910;28;20088;-76
2023/10/25 02:19:19;;;;;;;2.60;1.75;;;13.10;76.50;;;;;;5019991;28;20082;-77
2023/10/25 02:21:45;;;;;;;1.92;1.60;;;13.10;76.50;;;;;;5037480;28;20034;-77
2023/10/25 02:24:17;;;;;;;2.03;1.65;;;13.10;76.50;;;;;;5021782;28;20030;-77
2023/10/25 02:26:43;;;;;;;1.50;1.40;;;13.10;76.50;;;;;;5042292;28;20029;-76
2023/10/25 02:29:09;;;;;;;2.35;1.55;;;13.00;76.40;;;;;;5040433;28;20090;-76
2023/10/25 02:31:36;;;;;;;2.67;1.75;;;13.00;76.50;;;;;;5040559;28;20536;-76
2023/10/25 02:34:02;;;;;;;2.13;1.77;;;13.00;76.50;;;;;;5039841;28;20029;-77
2023/10/25 02:36:29;;;;;;;2.10;1.90;;;13.00;76.50;;;;;;5038549;28;20036;-76
2023/10/25 02:38:54;;;;;;;2.00;1.58;;;12.90;76.50;;;;;;5036503;28;20033;-77
2023/10/25 02:41:20;;;;;;;2.65;1.70;;;13.00;76.50;;;;;;5036542;28;20025;-76
2023/10/25 02:43:46;;;;;;;2.17;1.70;;;12.90;76.50;;;;;;5037095;28;20041;-76
2023/10/25 02:46:12;;;;;;;1.60;1.50;;;12.90;76.50;;;;;;5036287;28;20029;-76
2023/10/25 02:48:39;;;;;;;1.70;1.60;;;12.90;76.50;;;;;;5041119;28;20041;-76
2023/10/25 02:51:05;;;;;;;2.67;1.52;;;12.90;76.50;;;;;;5036977;28;20026;-77
2023/10/25 02:53:31;;;;;;;2.50;1.50;;;12.90;76.60;;;;;;5041616;28;20441;-77
2023/10/25 02:56:04;;;;;;;1.80;1.70;;;12.90;76.50;;;;;;5016778;28;20057;-76
2023/10/25 02:58:31;;;;;;;1.40;1.30;;;12.80;76.50;;;;;;5037909;28;20040;-76
2023/10/25 03:00:58;;;;;;;1.88;1.65;;;12.80;76.50;;;;;;5019762;28;20041;-77
2023/10/25 03:03:26;;;;;;;1.63;1.52;;;12.80;76.50;;;;;;5038743;28;20048;-77
2023/10/25 03:05:52;;;;;;;2.22;1.80;;;12.80;76.50;;;;;;5042662;28;20037;-76
2023/10/25 03:08:18;;;;;;;2.55;1.60;;;12.80;76.50;;;;;;5017983;28;20490;-76
2023/10/25 03:10:44;;;;;;;1.70;1.58;;;12.70;76.40;;;;;;5042765;28;20086;-76
2023/10/25 03:13:09;;;;;;;3.67;1.70;;;12.70;76.50;;;;;;5002688;28;20037;-76
2023/10/25 03:15:35;;;;;;;1.88;1.70;;;12.70;76.50;;;;;;5015062;28;20049;-76
2023/10/25 03:18:02;;;;;;;2.55;1.75;;;12.70;76.50;;;;;;5045875;28;20042;-77
2023/10/25 03:20:29;;;;;;;2.28;1.70;;;12.70;76.50;;;;;;5037921;28;20406;-76
2023/10/25 03:22:56;;;;;;;2.83;1.70;;;12.70;76.50;;;;;;5042516;28;20524;-77
2023/10/25 03:25:22;;;;;;;2.85;1.75;;;12.60;76.40;;;;;;5019941;28;20485;-76
2023/10/25 03:27:47;;;;;;;2.25;1.65;;;12.60;76.50;;;;;;5027710;28;20041;-77
2023/10/25 03:30:13;;;;;;;2.15;1.70;;;12.60;76.50;;;;;;5033187;28;20060;-76
2023/10/25 03:32:39;;;;;;;2.45;1.70;;;12.60;76.50;;;;;;5019903;28;20064;-77
2023/10/25 03:35:06;;;;;;;2.08;1.50;;;12.60;76.40;;;;;;5032776;28;20084;-76
2023/10/25 03:37:32;;;;;;;2.63;1.52;;;12.60;76.50;;;;;;5033512;28;20441;-76
2023/10/25 03:39:58;;;;;;;2.10;1.60;;;12.50;76.40;;;;;;5037248;28;20030;-77
2023/10/25 03:42:24;;;;;;;3.08;1.88;;;12.50;76.40;;;;;;5015615;28;20864;-77
2023/10/25 03:44:49;;;;;;;1.63;1.50;;;12.50;76.50;;;;;;5037452;28;20060;-76
2023/10/25 03:47:15;;;;;;;2.10;1.58;;;12.50;76.40;;;;;;5016211;28;20125;-76
2023/10/25 03:49:41;;;;;;;2.00;1.80;;;12.50;76.50;;;;;;5015940;28;20391;-76
2023/10/25 03:52:07;;;;;;;1.98;1.58;;;12.50;76.50;;;;;;5033194;28;20045;-76
2023/10/25 03:54:37;;;;;;;2.80;1.88;;;12.40;76.40;;;;;;5012384;28;20034;-76
2023/10/25 03:57:03;;;;;;;2.13;1.70;;;12.40;76.50;;;;;;5032106;28;20411;-77
2023/10/25 03:59:28;;;;;;;2.38;1.70;;;12.40;76.40;;;;;;5038515;28;20068;-76
2023/10/25 04:01:54;;;;;;;2.25;1.60;;;12.40;76.50;;;;;;5014684;28;20048;-77
2023/10/25 04:04:20;;;;;;;2.65;1.73;;;12.40;76.50;;;;;;5034816;28;20124;-78
2023/10/25 04:06:45;;;;;;;2.83;1.77;;;12.40;76.50;;;;;;5027371;28;20029;-76
2023/10/25 04:09:11;;;;;;;2.35;1.70;;;12.40;76.50;;;;;;4997098;28;20083;-77
2023/10/25 04:11:37;;;;;;;2.20;1.77;;;12.30;76.40;;;;;;5002538;28;20036;-76
2023/10/25 04:14:02;;;;;;;2.08;1.70;;;12.30;76.40;;;;;;5032305;28;20092;-76
2023/10/25 04:16:28;;;;;;;3.85;1.90;;;12.30;76.50;;;;;;5034884;28;20120;-77
2023/10/25 04:18:54;;;;;;;3.03;1.85;;;12.30;76.50;;;;;;5031616;28;20072;-77
2023/10/25 04:21:19;;;;;;;2.67;1.83;;;12.30;76.40;;;;;;5030459;28;20033;-77
2023/10/25 04:23:45;;;;;;;2.97;2.00;;;12.30;76.50;;;;;;5035608;28;20037;-76
2023/10/25 04:26:13;;;;;;;3.00;1.92;;;12.20;76.40;;;;;;5036963;28;20572;-76
2023/10/25 04:28:41;;;;;;;2.65;2.20;;;12.30;76.50;;;;;;5027483;28;20041;-76
2023/10/25 04:31:08;;;;;;;3.08;2.00;;;12.20;76.50;;;;;;5032370;28;20094;-77
2023/10/25 04:33:35;;;;;;;2.38;1.92;;;12.20;76.50;;;;;;5034669;28;20035;-77
2023/10/25 04:36:01;;;;;;;2.33;1.95;;;12.20;76.50;;;;;;5026879;28;20033;-77
2023/10/25 04:38:26;;;;;;;2.38;1.98;;;12.20;76.50;;;;;;5008861;28;20466;-77
2023/10/25 04:40:52;;;;;;;3.22;1.80;;;12.20;76.50;;;;;;5031309;28;20043;-76
2023/10/25 04:43:19;;;;;;;2.00;1.80;;;12.20;76.50;;;;;;5041406;28;20394;-76
2023/10/25 04:45:46;;;;;;;3.17;1.88;;;12.20;76.50;;;;;;5034461;28;20034;-76
2023/10/25 04:48:12;;;;;;;2.88;1.90;;;12.10;76.40;;;;;;5016801;28;20433;-76
2023/10/25 04:50:38;;;;;;;3.70;2.20;;;12.10;76.40;;;;;;5033185;28;20033;-77
2023/10/25 04:53:04;;;;;;;2.13;1.90;;;12.10;76.50;;;;;;5033716;28;20029;-76
2023/10/25 04:55:31;;;;;;;3.83;2.22;;;12.10;76.50;;;;;;5035435;28;20029;-77
2023/10/25 04:57:57;;;;;;;2.13;1.90;;;12.10;76.50;;;;;;5030233;28;20030;-77
2023/10/25 05:00:23;;;;;;;2.33;1.90;;;12.10;76.50;;;;;;5021080;28;20033;-76
2023/10/25 05:02:49;;;;;;;3.10;2.10;;;12.00;76.50;;;;;;5015233;28;20103;-78
2023/10/25 05:05:15;;;;;;;3.42;2.03;;;12.10;76.60;;;;;;5039092;28;20033;-76
2023/10/25 05:07:41;;;;;;;2.00;1.80;;;12.00;76.50;;;;;;5029854;28;20028;-76
2023/10/25 05:10:09;;;;;;;3.35;1.90;;;12.00;77.20;;;;;;5033314;28;20037;-77
2023/10/25 05:12:46;;;;;;;3.08;2.08;;;12.00;76.50;;;;;;5032598;28;20156;-77
2023/10/25 05:15:14;;;;;;;3.05;1.90;;;12.00;76.60;;;;;;5037620;28;20076;-77
2023/10/25 05:17:42;;;;;;;2.10;1.90;;;12.00;76.60;;;;;;5038156;28;20025;-76
2023/10/25 05:20:09;;;;;;;2.40;1.85;;;12.00;76.60;;;;;;5022658;28;20060;-76
2023/10/25 05:22:39;;;;;;;2.80;1.92;;;12.00;76.60;;;;;;5030920;28;20101;-77
2023/10/25 05:25:07;;;;;;;2.67;1.90;;;12.00;76.60;;;;;;5034391;28;20021;-76
2023/10/25 05:27:34;;;;;;;2.28;1.80;;;12.00;76.60;;;;;;5039962;28;20083;-76
2023/10/25 05:30:03;;;;;;;2.85;1.98;;;12.00;76.60;;;;;;5038428;28;20056;-76
2023/10/25 05:32:30;;;;;;;2.60;1.88;;;12.00;76.70;;;;;;5039999;28;20034;-76
2023/10/25 05:34:57;;;;;;;4.18;2.00;;;12.00;76.70;;;;;;5040651;28;20215;-76
2023/10/25 05:37:24;;;;;;;2.60;1.90;;;12.00;76.70;;;;;;5037828;28;20017;-76
2023/10/25 05:39:50;;;;;;;2.35;1.80;;;12.00;76.70;;;;;;5034724;28;20156;-76
2023/10/25 05:42:20;;;;;;;2.10;1.85;;;12.00;76.70;;;;;;5019796;28;20037;-76
2023/10/25 05:44:54;;;;;;;2.80;1.95;;;12.00;76.70;;;;;;5014907;28;20038;-75
2023/10/25 05:47:26;;;;;;;3.03;1.92;;;11.90;76.70;;;;;;5033718;28;20022;-75
2023/10/25 05:49:53;;;;;;;2.17;1.88;;;11.90;76.70;;;;;;5016804;28;20136;-76
2023/10/25 05:52:21;;;;;;;2.13;1.88;;;11.90;76.70;;;;;;5032512;28;20021;-76
2023/10/25 05:54:47;;;;;;;2.95;1.88;;;12.00;76.70;;;;;;5037903;28;20501;-76
2023/10/25 05:57:13;;;;;;;1.83;1.60;;;11.90;76.70;;;;;;5039523;28;20036;-76
2023/10/25 05:59:42;;;;;;;2.30;1.88;;;11.90;76.70;;;;;;5039431;28;20478;-76
2023/10/25 06:02:14;;;;;;;3.05;2.00;;;11.90;76.70;;;;;;5030947;28;20030;-76
2023/10/25 06:04:41;;;;;;;3.13;1.88;;;11.90;76.80;;;;;;5039777;28;20029;-76
2023/10/25 06:07:09;;;;;;;2.45;2.00;;;11.90;76.70;;;;;;5027557;28;20034;-75
2023/10/25 06:09:36;;;;;;;2.67;1.83;;;11.90;76.70;;;;;;5025158;28;20540;-76
2023/10/25 06:12:03;;;;;;;2.60;1.67;;;11.90;76.80;;;;;;5033595;28;20048;-75
2023/10/25 06:14:32;;;;;;;2.00;1.75;;;11.90;76.80;;;;;;5034376;28;20049;-77
2023/10/25 06:16:58;;;;;;;2.55;1.80;;;11.90;76.80;;;;;;5044363;28;20032;-76
2023/10/25 06:19:24;;;;;;;2.00;1.83;;;11.90;76.80;;;;;;5021278;28;20398;-77
2023/10/25 06:21:50;;;;;;;2.22;1.70;;;11.90;76.80;;;;;;5027422;28;20423;-76
2023/10/25 06:24:16;;;;;;;2.42;1.70;;;11.90;76.80;;;;;;5020245;28;20064;-76
2023/10/25 06:26:44;;;;;;;2.58;2.10;;;11.90;76.70;;;;;;5020464;28;20128;-76
2023/10/25 06:29:10;;;;;;;2.72;1.90;;;12.00;76.80;;;;;;5034808;28;20033;-76
2023/10/25 06:31:36;;;;;;;3.22;1.80;;;11.90;76.80;;;;;;5034844;28;20032;-77
2023/10/25 06:34:02;;;;;;;2.42;1.98;;;11.90;76.80;;;;;;5034968;28;20029;-76
2023/10/25 06:36:28;;;;;;;2.58;2.00;;;12.00;76.80;;;;;;5020570;28;20029;-76
2023/10/25 06:38:53;;;;;;;1.95;1.80;;;11.90;76.80;;;;;;5031364;28;20044;-76
2023/10/25 06:41:23;;;;;;;2.22;2.00;;;11.90;76.80;;;;;;5014333;28;20116;-75
2023/10/25 06:43:50;;;;;;;2.15;1.70;;;12.00;76.90;;;;;;5021885;28;20500;-76
2023/10/25 06:46:16;;;;;;;2.20;1.90;;;12.00;76.80;;;;;;5031950;28;20053;-76
2023/10/25 06:48:42;;;;;;;2.92;2.00;;;12.00;76.80;;;;;;5033186;28;20033;-76
2023/10/25 06:51:09;;;;;;;2.67;1.95;;;12.00;76.80;;;;;;5027376;28;20099;-77
2023/10/25 06:53:36;;;;;;;2.08;1.75;;;12.00;76.90;;;;;;5017250;28;20083;-77
2023/10/25 06:56:03;;;;;;;2.05;1.85;;;12.00;77.20;;;;;;5022600;28;20032;-76
2023/10/25 06:58:29;;;;;;;3.17;2.08;;;12.00;76.90;;;;;;5028918;28;20033;-77
2023/10/25 07:00:56;;;;;;;2.83;1.85;;;12.00;76.90;;;;;;5032790;28;20559;-77
2023/10/25 07:03:47;;;;;;;2.75;2.13;;;12.00;76.90;;;;;;5033385;28;20022;-77
2023/10/25 07:06:15;;;;;;;2.47;1.95;;;12.00;77.00;;;;;;5041061;28;20033;-77
2023/10/25 07:08:42;;;;;;;2.45;1.90;;;12.00;76.80;;;;;;5021687;28;20393;-76
2023/10/25 07:11:07;;;;;;;1.80;1.60;;;12.00;76.90;;;;;;5034248;28;20041;-78
2023/10/25 07:13:33;;;;;;;2.47;1.90;;;12.00;76.90;;;;;;5003821;28;20443;-77
2023/10/25 07:15:59;;;;;;;2.80;1.88;;;12.00;76.90;;;;;;5032461;28;20053;-77
2023/10/25 07:18:25;;;;;;;3.33;2.00;;;12.00;76.90;;;;;;5022493;28;20040;-77
2023/10/25 07:20:51;;;;;;;3.15;2.13;;;12.00;76.90;;;;;;5035136;28;20045;-77
2023/10/25 07:23:17;;;;;;;2.30;1.95;;;12.00;76.90;;;;;;5021884;28;20036;-76
2023/10/25 07:25:43;;;;;;;2.20;1.65;;;12.00;76.90;;;;;;5042457;28;20076;-76
2023/10/25 07:28:10;;;;;;;2.50;1.73;;;12.00;76.90;;;;;;5001585;28;20044;-81
2023/10/25 07:30:35;;;;;;;1.85;1.67;;;12.00;76.90;;;;;;5016985;28;20026;-77
2023/10/25 07:33:02;;;;;;;2.13;1.73;;;12.00;76.90;;;;;;5026307;28;20032;-78
2023/10/25 07:35:27;;;;;;;1.95;1.67;;;12.00;76.90;;;;;;5033489;28;20577;-76
2023/10/25 07:37:53;;;;;;;2.25;1.80;;;12.10;77.00;;;;;;5034877;28;20124;-76
2023/10/25 07:40:19;;;;;;;2.03;1.67;;;12.10;77.00;;;;;;5034862;28;20429;-77
2023/10/25 07:42:46;;;;;;;2.17;1.92;;;12.10;77.00;;;;;;5033211;28;20033;-77
2023/10/25 07:45:12;;;;;;;2.50;1.88;;;12.10;77.00;;;;;;5020423;28;20033;-77
2023/10/25 07:47:38;;;;;;;2.63;1.83;;;12.10;77.00;;;;;;5014810;28;20120;-76
2023/10/25 07:50:05;;;;;;;2.10;1.52;;;12.10;77.00;;;;;;5025385;28;20128;-76
2023/10/25 07:52:33;;;;;;;3.10;2.00;;;12.10;77.00;;;;;;5035238;28;20032;-76
2023/10/25 07:54:59;;;;;;;2.05;1.85;;;12.10;77.00;;;;;;5036055;28;20024;-77
2023/10/25 07:57:28;;;;;;;1.98;1.80;;;12.10;77.00;;;;;;5042511;28;20025;-77
2023/10/25 07:59:54;;;;;;;3.08;2.10;;;12.20;77.10;;;;;;5033467;28;20045;-77
2023/10/25 08:02:19;;;;;;;2.95;2.00;;;12.10;77.00;;;;;;5046661;28;20032;-77
2023/10/25 08:04:45;;;;;;;2.55;1.80;;;12.10;77.00;;;;;;5013856;28;20390;-76
2023/10/25 08:07:11;;;;;;;2.45;1.90;;;12.20;77.00;;;;;;5041457;28;20033;-76
2023/10/25 08:09:40;;;;;;;3.97;1.80;;;12.20;77.00;;;;;;5022954;28;20034;-76
2023/10/25 08:12:06;;;;;;;2.45;1.75;;;12.20;77.00;;;;;;5040433;28;20044;-76
2023/10/25 08:14:32;;;;;;;2.58;2.08;;;12.20;77.00;;;;;;5038009;28;20045;-78
2023/10/25 08:16:57;;;;;;;1.80;1.70;;;12.20;77.00;;;;;;5011384;28;20029;-75
2023/10/25 08:19:23;;;;;;;3.10;2.00;;;12.30;77.00;;;;;;5044042;28;20037;-76
2023/10/25 08:21:49;;;;;;;2.67;1.95;;;12.30;77.00;;;;;;5038828;28;20028;-76
2023/10/25 08:24:14;;;;;;;2.00;1.75;;;12.30;77.70;;;;;;5002376;28;20037;-77
2023/10/25 08:26:40;;;;;;;2.30;1.92;;;12.30;77.00;;;;;;5043542;28;20474;-76
2023/10/25 08:29:07;;;;;;;2.47;1.80;;;12.30;77.00;;;;;;5027358;28;20030;-75
2023/10/25 08:31:33;;;;;;;2.22;1.90;;;12.30;77.00;;;;;;5041654;28;20049;-74
2023/10/25 08:34:00;;;;;;;2.15;1.73;;;12.30;77.00;;;;;;5040377;28;20096;-76
2023/10/25 08:36:28;;;;;;;2.58;1.77;;;12.30;77.00;;;;;;5042609;28;20090;-76
2023/10/25 08:38:55;;;;;;;2.00;1.70;;;12.30;77.00;;;;;;5035161;28;20044;-75
2023/10/25 08:41:24;;;;;;;2.47;2.00;;;12.30;77.00;;;;;;5041035;28;20043;-75
2023/10/25 08:43:52;;;;;;;2.17;1.83;;;12.40;77.10;;;;;;5029022;28;20084;-75
2023/10/25 08:46:20;;;;;;;2.08;1.88;;;12.40;77.10;;;;;;5040457;28;20029;-75
2023/10/25 08:48:47;;;;;;;2.53;1.90;;;12.40;77.70;;;;;;5028627;28;20083;-76
2023/10/25 08:51:16;;;;;;;2.55;2.00;;;12.40;77.10;;;;;;5039217;28;20033;-76
2023/10/25 08:53:42;;;;;;;2.72;2.22;;;12.40;77.10;;;;;;4996900;28;20425;-76
2023/10/25 08:56:08;;;;;;;2.47;1.90;;;12.40;77.00;;;;;;5040732;28;20035;-77
2023/10/25 08:58:34;;;;;;;2.30;2.10;;;12.40;77.00;;;;;;5026791;28;20517;-76
2023/10/25 09:01:00;;;;;;;2.35;2.00;;;12.40;77.00;;;;;;5028971;28;20030;-76
2023/10/25 09:03:32;;;;;;;2.58;1.95;;;12.40;77.10;;;;;;5046079;28;20460;-76
2023/10/25 09:06:05;;;;;;;2.03;1.80;;;12.50;77.10;;;;;;5036776;28;20467;-76
2023/10/25 09:08:31;;;;;;;2.70;1.90;;;12.40;77.10;;;;;;5034766;28;20128;-76
2023/10/25 09:11:02;;;;;;;2.80;2.10;;;12.50;77.10;;;;;;5036786;28;20436;-76
2023/10/25 09:13:30;;;;;;;1.90;1.70;;;12.50;77.10;;;;;;5031024;28;20053;-76
2023/10/25 09:16:06;;;;;;;2.13;1.85;;;12.50;77.10;;;;;;5029975;28;20053;-77
2023/10/25 09:18:34;;;;;;;3.13;2.10;;;12.50;77.10;;;;;;5039120;28;20036;-76
2023/10/25 09:21:01;;;;;;;2.92;1.92;;;12.60;77.10;;;;;;5027076;28;20120;-77
2023/10/25 09:23:28;;;;;;;2.70;2.05;;;12.50;77.10;;;;;;5030591;28;20466;-76
2023/10/25 09:26:00;;;;;;;2.28;2.05;;;12.60;77.10;;;;;;5042698;28;20086;-77
2023/10/25 09:28:28;;;;;;;2.00;1.80;;;12.60;77.20;;;;;;5040799;28;20071;-76
2023/10/25 09:30:59;;;;;;;2.55;2.03;;;12.60;77.10;;;;;;5035694;28;20044;-76
2023/10/25 09:33:28;;;;;;;3.10;1.80;;;12.60;77.20;;;;;;5040407;28;20064;-77
2023/10/25 09:35:54;;;;;;;2.17;1.90;;;12.60;77.10;;;;;;5031551;28;20096;-79
2023/10/25 09:38:20;;;;;;;2.85;1.95;;;12.60;77.10;;;;;;5040378;28;20061;-77
2023/10/25 09:40:46;;;;;;;3.65;2.10;;;12.70;77.10;;;;;;5018038;28;20060;-77
2023/10/25 09:43:19;;;;;;;2.25;1.90;;;12.70;77.10;;;;;;5035606;28;20028;-77
2023/10/25 09:45:52;;;;;;;2.65;1.98;;;12.70;77.20;;;;;;5032116;28;20064;-77
2023/10/25 09:48:20;;;;;;;2.10;1.70;;;12.70;77.20;;;;;;5035767;28;20037;-77
2023/10/25 09:50:51;;;;;;;2.17;1.95;;;12.70;77.10;;;;;;5035717;28;20025;-76
2023/10/25 09:53:28;;;;;;;3.17;2.10;;;12.70;77.20;;;;;;5036894;28;20060;-77
2023/10/25 09:56:00;;;;;;;2.83;2.05;;;12.80;77.20;;;;;;5034559;28;20033;-77
2023/10/25 09:58:28;;;;;;;2.22;1.88;;;12.80;77.20;;;;;;5031718;28;20034;-76
2023/10/25 10:00:54;;;;;;;2.42;2.00;;;12.80;77.10;;;;;;5031867;28;20052;-77
2023/10/25 10:03:30;;;;;;;2.47;1.90;;;12.80;77.10;;;;;;5024043;28;20032;-76
2023/10/25 10:06:11;;;;;;;1.98;1.63;;;12.80;77.20;;;;;;5042567;28;20107;-76
2023/10/25 10:08:59;;;;;;;2.00;1.80;;;12.80;77.20;;;;;;5044922;28;20029;-78
2023/10/25 10:11:31;;;;;;;2.00;1.80;;;12.80;77.20;;;;;;5037820;28;20124;-76
2023/10/25 10:14:28;;;;;;;2.28;1.83;;;12.80;77.10;;;;;;5030696;28;20076;-77
2023/10/25 10:17:14;;;;;;;2.25;1.80;;;12.80;77.20;;;;;;5034456;28;20477;-78
2023/10/25 10:19:44;;;;;;;2.90;1.88;;;12.80;77.10;;;;;;5042431;28;20044;-77
2023/10/25 10:22:18;;;;;;;3.20;1.90;;;12.90;77.10;;;;;;5040592;28;20030;-77
2023/10/25 10:24:53;;;;;;;2.28;1.90;;;12.90;77.20;;;;;;5034937;28;20039;-76
2023/10/25 10:27:52;;;;;;;1.98;1.77;;;12.90;77.20;;;;;;5052797;28;20033;-77
2023/10/25 10:30:30;;;;;;;2.28;1.77;;;12.90;77.20;;;;;;5030242;28;20041;-76
2023/10/25 10:32:56;;;;;;;2.80;2.10;;;12.90;77.10;;;;;;5054479;28;20109;-76
2023/10/25 10:35:23;;;;;;;2.28;1.98;;;12.90;77.10;;;;;;5037765;28;20110;-76
2023/10/25 10:37:56;;;;;;;2.03;1.80;;;12.90;77.10;;;;;;5051576;28;20470;-77
2023/10/25 10:40:22;;;;;;;2.30;1.92;;;13.00;77.20;;;;;;5039140;28;20033;-77
2023/10/25 10:42:48;;;;;;;2.05;1.80;;;13.00;77.20;;;;;;5016259;28;20034;-76
2023/10/25 10:45:16;;;;;;;2.05;1.85;;;13.00;77.20;;;;;;5037861;28;20485;-77
2023/10/25 10:48:11;;;;;;;2.55;1.83;;;13.00;77.20;;;;;;5005606;28;20032;-76
2023/10/25 10:50:40;;;;;;;2.88;2.00;;;13.00;77.20;;;;;;5037875;28;20040;-77
2023/10/25 10:53:06;;;;;;;2.63;1.80;;;13.00;77.10;;;;;;5028167;28;20048;-76
2023/10/25 10:55:32;;;;;;;3.05;2.08;;;13.00;77.10;;;;;;5012623;28;20505;-76
2023/10/25 10:57:58;;;;;;;3.05;1.95;;;13.00;77.10;;;;;;5031807;28;20030;-77
2023/10/25 11:00:25;;;;;;;2.88;2.00;;;13.10;77.20;;;;;;5042683;28;20371;-76
2023/10/25 11:02:52;;;;;;;2.92;1.95;;;13.10;77.20;;;;;;5035076;28;20026;-76
2023/10/25 11:05:25;;;;;;;2.55;1.80;;;13.10;77.20;;;;;;5042233;28;20057;-76
2023/10/25 11:07:51;;;;;;;2.15;1.92;;;13.10;77.10;;;;;;5044809;28;20075;-77
2023/10/25 11:10:17;;;;;;;2.65;1.80;;;13.10;77.20;;;;;;5009128;28;20042;-78
2023/10/25 11:12:44;;;;;;;1.90;1.70;;;13.10;77.10;;;;;;5041025;28;20037;-77
2023/10/25 11:15:12;;;;;;;2.22;1.90;;;13.10;77.10;;;;;;5012259;28;20051;-77
2023/10/25 11:17:38;;;;;;;3.47;2.20;;;13.20;77.20;;;;;;5044909;28;20033;-77
2023/10/25 11:20:05;;;;;;;2.53;1.85;;;13.10;77.10;;;;;;5045274;28;20080;-77
2023/10/25 11:22:31;;;;;;;2.47;2.05;;;13.20;77.20;;;;;;5040707;28;20033;-77
2023/10/25 11:24:58;;;;;;;2.75;1.90;;;13.20;77.80;;;;;;5039698;28;20037;-77
2023/10/25 11:27:31;;;;;;;1.88;1.67;;;13.20;77.20;;;;;;5045179;28;20025;-77
2023/10/25 11:29:58;;;;;;;2.25;1.80;;;13.20;77.20;;;;;;5040556;28;20478;-76
2023/10/25 11:32:23;;;;;;;2.95;2.00;;;13.20;77.10;;;;;;5023107;28;20055;-77
2023/10/25 11:34:56;;;;;;;2.80;1.90;;;13.20;77.10;;;;;;5029230;28;20025;-77
2023/10/25 11:37:25;;;;;;;2.58;1.65;;;13.20;77.20;;;;;;5033984;28;20065;-76
2023/10/25 11:39:58;;;;;;;2.88;2.13;;;13.30;77.20;;;;;;5017116;28;20462;-77
2023/10/25 11:42:31;;;;;;;1.95;1.77;;;13.20;77.20;;;;;;5030474;28;20029;-77
2023/10/25 11:45:03;;;;;;;3.38;2.08;;;13.30;77.20;;;;;;5040538;28;20033;-77
2023/10/25 11:47:30;;;;;;;2.28;1.80;;;13.30;77.20;;;;;;5029550;28;20026;-76
2023/10/25 11:50:00;;;;;;;4.65;2.47;;;13.30;77.20;;;;;;5051289;28;20094;-77
2023/10/25 11:52:27;;;;;;;2.72;2.15;;;13.30;77.20;;;;;;5021839;28;20549;-76
2023/10/25 11:54:58;;;;;;;2.30;1.70;;;13.30;77.20;;;;;;5017118;28;20098;-76
2023/10/25 11:57:28;;;;;;;3.33;2.10;;;13.30;77.20;;;;;;5036708;28;20949;-77
2023/10/25 11:59:54;;;;;;;2.40;1.75;;;13.30;77.20;;;;;;5028496;28;20029;-77
2023/10/25 12:02:21;;;;;;;2.63;2.03;;;13.40;77.20;;;;;;5030281;28;20026;-78
2023/10/25 12:04:48;;;;;;;2.78;1.80;;;13.40;77.20;;;;;;5041581;28;20029;-77
2023/10/25 12:07:14;;;;;;;3.53;2.00;;;13.40;77.20;;;;;;5016460;28;20544;-77
2023/10/25 12:09:41;;;;;;;3.15;2.08;;;13.40;77.20;;;;;;5038814;28;20041;-77
2023/10/25 12:12:07;;;;;;;2.35;2.00;;;13.40;77.10;;;;;;5025151;28;20041;-76
2023/10/25 12:14:33;;;;;;;2.83;2.00;;;13.40;77.20;;;;;;5034144;28;20053;-77
2023/10/25 12:16:59;;;;;;;2.38;2.00;;;13.40;77.10;;;;;;5041931;28;20075;-77
2023/10/25 12:19:25;;;;;;;2.28;1.58;;;13.40;77.10;;;;;;5038631;28;20489;-77
2023/10/25 12:21:57;;;;;;;2.03;1.70;;;13.50;77.20;;;;;;5037791;28;20040;-77
2023/10/25 12:24:25;;;;;;;2.53;1.85;;;13.50;77.20;;;;;;5032697;28;20047;-77
2023/10/25 12:26:51;;;;;;;1.95;1.63;;;13.50;77.80;;;;;;5038202;28;20048;-77
2023/10/25 12:29:17;;;;;;;1.88;1.73;;;13.50;77.20;;;;;;5021466;28;20084;-77
2023/10/25 12:31:43;;;;;;;2.40;1.85;;;13.50;77.20;;;;;;5035895;28;20041;-77
2023/10/25 12:34:09;;;;;;;2.53;1.83;;;13.60;77.30;;;;;;5022150;28;20429;-77
2023/10/25 12:36:35;;;;;;;2.72;1.73;;;13.60;77.30;;;;;;5036922;28;20033;-77
2023/10/25 12:39:01;;;;;;;1.70;1.60;;;13.50;77.20;;;;;;4977030;28;20459;-77
2023/10/25 12:41:27;;;;;;;2.20;1.80;;;13.60;77.20;;;;;;5016136;28;20030;-77
2023/10/25 12:43:52;;;;;;;2.40;1.70;;;13.60;77.20;;;;;;5015100;28;20445;-77
2023/10/25 12:46:18;;;;;;;2.60;1.80;;;13.60;77.20;;;;;;5012851;28;20028;-77
2023/10/25 12:48:44;;;;;;;2.08;1.67;;;13.60;77.30;;;;;;5012468;28;20033;-76
2023/10/25 12:51:10;;;;;;;2.33;1.60;;;13.60;77.20;;;;;;5018063;28;20113;-77